createdAt,value
2023-03-26T00:02:21.159Z,23.27
2023-03-26T00:06:21.115Z,23.24
2023-03-26T00:10:21.057Z,23.21
2023-03-26T00:14:21.031Z,23.18
2023-03-26T00:18:21.008Z,23.20
2023-03-26T00:22:20.912Z,23.21
2023-03-26T00:26:20.900Z,23.21
2023-03-26T00:30:20.869Z,23.20
2023-03-26T00:34:20.819Z,23.13
2023-03-26T00:38:20.779Z,23.07
2023-03-26T00:42:20.749Z,23.02
2023-03-26T00:46:20.778Z,23.00
2023-03-26T00:50:20.666Z,22.96
2023-03-26T00:54:20.640Z,22.93
2023-03-26T00:58:20.627Z,22.93
2023-03-26T01:02:20.582Z,22.93
2023-03-26T01:06:20.513Z,22.90
2023-03-26T01:10:20.468Z,22.90
2023-03-26T01:14:20.502Z,22.89
2023-03-26T01:18:20.434Z,22.90
2023-03-26T01:22:20.468Z,22.86
2023-03-26T01:26:20.588Z,22.87
2023-03-26T01:30:20.744Z,22.86
2023-03-26T01:34:20.890Z,22.80
2023-03-26T01:38:21.131Z,22.82
2023-03-26T01:42:21.245Z,22.78
2023-03-26T01:46:21.380Z,22.75
2023-03-26T01:50:21.534Z,22.73
2023-03-26T01:54:21.725Z,22.73
2023-03-26T01:58:21.882Z,22.68
2023-03-26T02:02:22.164Z,22.66
2023-03-26T02:06:22.233Z,22.65
2023-03-26T02:10:22.395Z,22.66
2023-03-26T02:14:22.608Z,22.61
2023-03-26T02:18:22.832Z,22.56
2023-03-26T02:22:23.001Z,22.55
2023-03-26T02:26:23.257Z,22.52
2023-03-26T02:30:23.184Z,22.48
2023-03-26T02:34:23.165Z,22.45
2023-03-26T02:38:23.101Z,22.42
2023-03-26T02:42:23.095Z,22.41
2023-03-26T02:46:23.108Z,22.44
2023-03-26T02:50:23.024Z,22.41
2023-03-26T02:54:22.944Z,22.40
2023-03-26T02:58:22.926Z,22.37
2023-03-26T03:02:22.937Z,22.37
2023-03-26T03:06:23.016Z,22.34
2023-03-26T03:10:22.972Z,22.32
2023-03-26T03:14:22.894Z,22.34
2023-03-26T03:18:22.852Z,22.30
2023-03-26T03:22:22.822Z,22.28
2023-03-26T03:26:22.834Z,22.27
2023-03-26T03:30:22.774Z,22.25
2023-03-26T03:34:22.725Z,22.23
2023-03-26T03:38:22.696Z,22.20
2023-03-26T03:42:22.646Z,22.20
2023-03-26T03:46:22.633Z,22.20
2023-03-26T03:50:22.567Z,22.17
2023-03-26T03:54:22.543Z,22.13
2023-03-26T03:58:22.512Z,22.11
2023-03-26T04:02:22.605Z,22.10
2023-03-26T04:06:22.505Z,22.11
2023-03-26T04:10:22.498Z,22.06
2023-03-26T04:14:22.474Z,22.04
2023-03-26T04:18:22.446Z,22.01
2023-03-26T04:22:22.477Z,22.01
2023-03-26T04:26:22.425Z,22.03
2023-03-26T04:30:22.454Z,22.01
2023-03-26T04:34:22.383Z,22.01
2023-03-26T04:38:22.407Z,22.01
2023-03-26T04:42:22.399Z,22.00
2023-03-26T04:46:22.388Z,21.97
2023-03-26T04:50:22.397Z,22.00
2023-03-26T04:54:22.346Z,21.96
2023-03-26T04:58:22.382Z,21.93
2023-03-26T05:02:22.392Z,21.92
2023-03-26T05:06:22.391Z,21.89
2023-03-26T05:10:22.422Z,21.87
2023-03-26T05:14:22.389Z,21.89
2023-03-26T05:18:22.372Z,21.85
2023-03-26T05:22:22.363Z,21.86
2023-03-26T05:26:22.366Z,21.80
2023-03-26T05:30:22.435Z,21.83
2023-03-26T05:34:22.323Z,21.79
2023-03-26T05:38:22.325Z,21.79
2023-03-26T05:42:22.280Z,21.78
2023-03-26T05:46:22.311Z,21.78
2023-03-26T05:50:22.311Z,21.79
2023-03-26T05:54:22.302Z,21.76
2023-03-26T05:58:22.282Z,21.78
2023-03-26T06:02:22.361Z,21.75
2023-03-26T06:06:22.322Z,21.72
2023-03-26T06:10:22.322Z,21.73
2023-03-26T06:14:22.328Z,21.70
2023-03-26T06:18:22.363Z,21.73
2023-03-26T06:22:22.386Z,21.73
2023-03-26T06:26:22.381Z,21.75
2023-03-26T06:30:22.497Z,21.76
2023-03-26T06:34:22.418Z,21.73
2023-03-26T06:38:22.411Z,21.75
2023-03-26T06:42:22.451Z,21.76
2023-03-26T06:46:23.409Z,21.79
2023-03-26T06:50:22.360Z,21.79
2023-03-26T06:54:22.366Z,21.78
2023-03-26T06:58:22.279Z,21.78
2023-03-26T07:02:22.388Z,21.79
2023-03-26T07:06:22.222Z,21.78
2023-03-26T07:10:22.184Z,21.76
2023-03-26T07:14:22.174Z,21.78
2023-03-26T07:18:22.080Z,21.79
2023-03-26T07:22:22.444Z,21.79
2023-03-26T07:26:22.165Z,21.85
2023-03-26T07:30:22.242Z,21.86
2023-03-26T07:34:22.144Z,21.87
2023-03-26T07:38:22.156Z,21.85
2023-03-26T07:42:22.172Z,21.85
2023-03-26T07:46:22.229Z,21.87
2023-03-26T07:50:22.255Z,21.92
2023-03-26T07:54:22.144Z,21.97
2023-03-26T07:58:22.168Z,22.03
2023-03-26T08:02:22.236Z,22.04
2023-03-26T08:06:22.188Z,22.06
2023-03-26T08:10:22.211Z,22.08
2023-03-26T08:14:22.176Z,22.10
2023-03-26T08:18:22.234Z,22.07
2023-03-26T08:22:22.240Z,22.08
2023-03-26T08:26:22.240Z,22.10
2023-03-26T08:30:22.234Z,22.08
2023-03-26T08:34:22.240Z,22.11
2023-03-26T08:38:22.282Z,22.15
2023-03-26T08:42:22.321Z,22.17
2023-03-26T08:46:22.326Z,22.15
2023-03-26T08:50:22.865Z,22.18
2023-03-26T08:54:22.392Z,22.21
2023-03-26T08:58:22.377Z,22.25
2023-03-26T09:02:22.403Z,22.25
2023-03-26T09:06:24.230Z,22.27
2023-03-26T09:10:22.416Z,22.27
2023-03-26T09:14:22.351Z,22.24
2023-03-26T09:18:22.336Z,22.21
2023-03-26T09:22:22.314Z,22.20
2023-03-26T09:26:22.266Z,22.18
2023-03-26T09:30:22.233Z,22.20
2023-03-26T09:34:22.191Z,22.24
2023-03-26T09:38:22.142Z,22.25
2023-03-26T09:42:22.123Z,22.32
2023-03-26T09:46:22.153Z,22.37
2023-03-26T09:50:22.050Z,22.34
2023-03-26T09:54:22.010Z,22.37
2023-03-26T09:58:22.002Z,22.44
2023-03-26T10:02:21.961Z,22.47
2023-03-26T10:06:22.900Z,22.50
2023-03-26T10:10:21.914Z,22.51
2023-03-26T10:14:21.881Z,22.55
2023-03-26T10:18:27.910Z,22.58
2023-03-26T10:22:22.772Z,22.55
2023-03-26T10:26:21.731Z,22.55
2023-03-26T10:30:21.685Z,22.52
2023-03-26T10:34:29.352Z,22.51
2023-03-26T10:38:22.619Z,22.45
2023-03-26T10:42:21.568Z,22.42
2023-03-26T10:46:21.581Z,22.45
2023-03-26T10:50:22.738Z,22.45
2023-03-26T10:54:21.488Z,22.42
2023-03-26T10:58:21.436Z,22.40
2023-03-26T11:02:29.260Z,22.42
2023-03-26T11:06:22.388Z,22.44
2023-03-26T11:10:21.362Z,22.48
2023-03-26T11:14:31.831Z,22.55
2023-03-26T11:18:22.471Z,22.58
2023-03-26T11:22:21.229Z,22.59
2023-03-26T11:26:21.257Z,22.61
2023-03-26T11:30:21.145Z,22.69
2023-03-26T11:34:21.131Z,22.69
2023-03-26T11:38:21.117Z,22.72
2023-03-26T11:42:21.049Z,22.79
2023-03-26T11:46:21.096Z,22.83
2023-03-26T11:50:21.010Z,22.83
2023-03-26T11:54:21.076Z,22.87
2023-03-26T11:58:21.093Z,22.87
2023-03-26T12:02:21.180Z,22.89
2023-03-26T12:06:21.142Z,22.83
2023-03-26T12:10:21.204Z,22.83
2023-03-26T12:14:21.175Z,22.79
2023-03-26T12:18:21.221Z,22.75
2023-03-26T12:22:21.161Z,22.73
2023-03-26T12:26:21.115Z,22.70
2023-03-26T12:30:21.167Z,22.70
2023-03-26T12:34:21.105Z,22.72
2023-03-26T12:38:21.058Z,22.68
2023-03-26T12:44:41.739Z,22.65
2023-03-26T12:47:57.366Z,22.69
2023-03-26T12:50:34.190Z,22.68
2023-03-26T12:54:21.934Z,22.68
2023-03-26T12:58:20.911Z,22.72
2023-03-26T13:02:20.971Z,22.73
2023-03-26T13:06:20.826Z,22.72
2023-03-26T13:10:20.761Z,22.72
2023-03-26T13:14:20.746Z,22.80
2023-03-26T13:18:20.695Z,22.86
2023-03-26T13:22:20.665Z,22.92
2023-03-26T13:26:20.623Z,22.93
2023-03-26T13:30:20.585Z,22.92
2023-03-26T13:34:20.563Z,22.86
2023-03-26T13:38:20.532Z,22.83
2023-03-26T13:42:20.491Z,22.80
2023-03-26T13:46:20.546Z,22.75
2023-03-26T13:50:20.446Z,22.75
2023-03-26T13:54:20.372Z,22.73
2023-03-26T13:58:20.409Z,22.66
2023-03-26T14:02:20.281Z,22.66
2023-03-26T14:06:20.246Z,22.65
2023-03-26T14:10:20.204Z,22.63
2023-03-26T14:14:20.217Z,22.62
2023-03-26T14:18:20.164Z,22.59
2023-03-26T14:22:20.131Z,22.59
2023-03-26T14:26:20.071Z,22.58
2023-03-26T14:30:20.045Z,22.55
2023-03-26T14:34:19.986Z,22.55
2023-03-26T14:38:19.967Z,22.56
2023-03-26T14:42:19.963Z,22.55
2023-03-26T14:46:20.032Z,22.54
2023-03-26T14:50:19.979Z,22.52
2023-03-26T14:54:20.064Z,22.50
2023-03-26T14:58:19.982Z,22.51
2023-03-26T15:02:19.981Z,22.48
2023-03-26T15:06:20.002Z,22.45
2023-03-26T15:10:19.990Z,22.44
2023-03-26T15:14:20.012Z,22.41
2023-03-26T15:18:20.008Z,22.41
2023-03-26T15:22:20.038Z,22.37
2023-03-26T15:26:20.030Z,22.30
2023-03-26T15:30:20.034Z,22.32
2023-03-26T15:34:20.015Z,22.30
2023-03-26T15:38:19.981Z,22.30
2023-03-26T15:42:20.007Z,22.30
2023-03-26T15:46:19.998Z,22.28
2023-03-26T15:50:19.981Z,22.28
2023-03-26T15:54:19.977Z,22.27
2023-03-26T15:58:19.931Z,22.28
2023-03-26T16:02:19.957Z,22.30
2023-03-26T16:06:19.919Z,22.27
2023-03-26T16:10:19.938Z,22.27
2023-03-26T16:14:21.393Z,22.20
2023-03-26T16:18:19.900Z,22.20
2023-03-26T16:22:19.872Z,22.18
2023-03-26T16:26:19.818Z,22.18
2023-03-26T16:30:20.862Z,22.14
2023-03-26T16:34:19.740Z,22.15
2023-03-26T16:38:19.710Z,22.15
2023-03-26T16:42:19.670Z,22.14
2023-03-26T16:46:19.639Z,22.14
2023-03-26T16:50:19.591Z,22.13
2023-03-26T16:54:19.582Z,22.17
2023-03-26T16:58:19.494Z,22.11
2023-03-26T17:02:19.529Z,22.08
2023-03-26T17:06:19.453Z,22.08
2023-03-26T17:10:19.404Z,22.10
2023-03-26T17:14:19.371Z,22.07
2023-03-26T17:18:19.430Z,22.08
2023-03-26T17:22:19.297Z,22.07
2023-03-26T17:26:19.268Z,22.06
2023-03-26T17:30:19.223Z,22.01
2023-03-26T17:34:19.226Z,22.00
2023-03-26T17:38:19.167Z,21.97
2023-03-26T17:42:19.191Z,21.93
2023-03-26T17:46:19.238Z,21.93
2023-03-26T17:50:19.281Z,21.89
2023-03-26T17:54:19.337Z,21.86
2023-03-26T17:58:19.399Z,21.89
2023-03-26T18:02:19.513Z,21.85
2023-03-26T18:06:19.590Z,21.86
2023-03-26T18:10:19.657Z,21.87
2023-03-26T18:14:19.723Z,21.85
2023-03-26T18:18:19.892Z,21.86
2023-03-26T18:22:19.966Z,21.85
2023-03-26T18:26:20.025Z,21.85
2023-03-26T18:30:20.123Z,21.78
2023-03-26T18:34:20.228Z,21.78
2023-03-26T18:38:36.072Z,21.79
2023-03-26T18:42:22.656Z,21.79
2023-03-26T18:46:20.362Z,21.75
2023-03-26T18:50:20.219Z,21.78
2023-03-26T18:54:20.182Z,21.75
2023-03-26T18:58:20.168Z,21.75
2023-03-26T19:02:20.214Z,21.72
2023-03-26T19:06:20.109Z,21.70
2023-03-26T19:10:20.239Z,21.72
2023-03-26T19:14:20.343Z,21.70
2023-03-26T19:18:20.449Z,21.68
2023-03-26T19:22:20.640Z,21.68
2023-03-26T19:26:20.683Z,21.66
2023-03-26T19:30:20.828Z,21.62
2023-03-26T19:34:21.004Z,21.61
2023-03-26T19:38:21.141Z,21.58
2023-03-26T19:42:21.297Z,21.56
2023-03-26T19:46:21.468Z,21.55
2023-03-26T19:50:21.626Z,21.53
2023-03-26T19:54:21.788Z,21.55
2023-03-26T19:58:21.977Z,21.55
2023-03-26T20:02:22.222Z,21.52
2023-03-26T20:06:28.116Z,21.51
2023-03-26T20:10:23.275Z,21.53
2023-03-26T20:14:22.235Z,21.56
2023-03-26T20:18:22.322Z,21.56
2023-03-26T20:22:22.493Z,21.56
2023-03-26T20:26:22.691Z,21.56
2023-03-26T20:30:36.793Z,21.56
2023-03-26T20:34:23.818Z,21.53
2023-03-26T20:38:32.869Z,21.51
2023-03-26T20:42:23.769Z,21.48
2023-03-26T20:46:22.699Z,21.44
2023-03-26T20:50:22.786Z,21.45
2023-03-26T20:54:23.101Z,21.42
2023-03-26T20:58:31.237Z,21.40
2023-03-26T21:02:24.277Z,21.44
2023-03-26T21:06:23.166Z,21.42
2023-03-26T21:10:23.320Z,21.40
2023-03-26T21:14:23.569Z,21.41
2023-03-26T21:18:23.778Z,21.40
2023-03-26T21:22:23.965Z,21.42
2023-03-26T21:26:23.957Z,21.41
2023-03-26T21:30:23.908Z,21.38
2023-03-26T21:34:23.871Z,21.40
2023-03-26T21:38:23.833Z,21.37
2023-03-26T21:42:23.805Z,21.38
2023-03-26T21:46:24.692Z,21.35
2023-03-26T21:50:23.750Z,21.31
2023-03-26T21:54:23.701Z,21.33
2023-03-26T21:58:23.643Z,21.30
2023-03-26T22:02:23.834Z,21.31
2023-03-26T22:06:23.773Z,21.30
2023-03-26T22:10:23.740Z,21.28
2023-03-26T22:14:23.676Z,21.30
2023-03-26T22:18:23.658Z,21.27
2023-03-26T22:22:23.614Z,21.28
2023-03-26T22:26:23.578Z,21.25
2023-03-26T22:30:23.557Z,21.27
2023-03-26T22:34:23.524Z,21.23
2023-03-26T22:38:23.486Z,21.25
2023-03-26T22:42:23.662Z,21.23
2023-03-26T22:46:23.864Z,21.21
2023-03-26T22:50:23.988Z,21.23
2023-03-26T22:54:24.100Z,21.21
2023-03-26T22:58:24.033Z,21.20
2023-03-26T23:02:24.096Z,21.20
2023-03-26T23:06:23.969Z,21.20
2023-03-26T23:10:23.942Z,21.20
2023-03-26T23:14:23.857Z,21.15
2023-03-26T23:18:23.855Z,21.15
2023-03-26T23:22:23.794Z,21.13
2023-03-26T23:26:23.791Z,21.11
2023-03-26T23:30:23.731Z,21.11
2023-03-26T23:34:23.706Z,21.10
2023-03-26T23:38:23.659Z,21.08
2023-03-26T23:42:29.045Z,21.08
2023-03-26T23:46:24.617Z,21.04
2023-03-26T23:50:23.577Z,21.01
2023-03-26T23:54:23.512Z,21.00
2023-03-26T23:58:23.480Z,20.97
